Time;durP1;ratioP1;P1;durP2;ratioP2;P2;SDS_P1;SDS_P2;PMS_P1;PMS_P2;Temp;Humidity;BMP_temperature;BMP_pressure;BME280_temperature;BME280_humidity;BME280_pressure;Samples;Min_cycle;Max_cycle;Signal;HPM_P1;HPM_P2
2024/04/03 00:00:16;;;;;;;4.63;0.88;;;;;;;11.88;72.90;99545.97;10412211;28;20036;-66
2024/04/03 00:05:17;;;;;;;2.15;0.40;;;;;;;11.89;73.06;99528.13;10409332;28;20056;-65
2024/04/03 00:10:18;;;;;;;3.60;0.73;;;;;;;11.91;73.03;99532.34;10403404;28;20129;-65
2024/04/03 00:15:19;;;;;;;3.75;0.82;;;;;;;11.92;73.28;99525.19;10405321;28;20132;-66
2024/04/03 00:20:23;;;;;;;2.95;1.35;;;;;;;11.70;73.60;99491.78;10404523;28;20056;-70
2024/04/03 00:25:23;;;;;;;3.10;0.65;;;;;;;11.99;73.07;99521.81;10394183;28;20661;-64
2024/04/03 00:30:24;;;;;;;3.58;0.60;;;;;;;12.00;73.14;99512.81;10401643;28;20121;-65
2024/04/03 00:35:24;;;;;;;2.70;0.90;;;;;;;11.97;73.20;99507.78;10406761;28;20095;-65
2024/04/03 00:40:25;;;;;;;4.97;0.70;;;;;;;12.00;72.79;99502.13;10396142;28;20045;-65
2024/04/03 00:45:25;;;;;;;3.00;0.60;;;;;;;11.95;72.55;99493.75;10415070;28;20451;-65
2024/04/03 00:50:26;;;;;;;2.67;0.80;;;;;;;12.05;72.03;99492.84;10405501;28;20127;-66
2024/04/03 00:55:26;;;;;;;4.88;0.90;;;;;;;12.04;71.91;99492.03;10403848;28;20090;-64
2024/04/03 01:00:27;;;;;;;2.58;0.60;;;;;;;12.07;71.96;99485.53;10382699;28;20037;-65
2024/04/03 01:05:27;;;;;;;2.65;0.93;;;;;;;12.11;71.83;99477.06;10399779;28;20051;-65
2024/04/03 01:10:28;;;;;;;2.25;0.65;;;;;;;12.10;71.86;99469.22;10394340;28;20115;-66
2024/04/03 01:15:29;;;;;;;3.72;0.95;;;;;;;12.10;71.76;99469.22;10396721;28;20115;-66
2024/04/03 01:20:29;;;;;;;2.80;0.80;;;;;;;12.00;72.03;99458.63;10377917;28;20142;-66
2024/04/03 01:25:30;;;;;;;2.22;1.10;;;;;;;11.92;72.05;99451.34;10401937;28;20053;-67
2024/04/03 01:30:30;;;;;;;3.95;0.85;;;;;;;11.95;72.18;99461.75;10377947;28;20049;-66
2024/04/03 01:35:31;;;;;;;5.40;1.05;;;;;;;11.77;71.67;99416.38;10401921;28;20606;-66
2024/04/03 01:40:32;;;;;;;5.25;0.80;;;;;;;12.02;72.07;99441.50;10404565;28;20136;-65
2024/04/03 01:45:33;;;;;;;3.55;0.77;;;;;;;12.06;71.74;99441.19;10402108;28;20503;-65
2024/04/03 01:50:37;;;;;;;4.25;1.38;;;;;;;12.03;71.54;99427.16;10401835;28;20129;-65
2024/04/03 01:55:37;;;;;;;2.72;0.80;;;;;;;11.86;71.67;99398.63;10408246;28;20128;-66
2024/04/03 02:00:37;;;;;;;4.60;1.50;;;;;;;12.05;71.71;99412.81;10404220;28;20079;-67
2024/04/03 02:05:38;;;;;;;3.72;1.00;;;;;;;12.01;72.03;99415.81;10374841;28;20049;-67
2024/04/03 02:10:39;;;;;;;3.78;0.57;;;;;;;12.05;72.55;99420.81;10401942;28;20138;-66
2024/04/03 02:15:39;;;;;;;2.40;0.70;;;;;;;11.84;72.78;99392.59;10405553;28;20053;-67
2024/04/03 02:20:39;;;;;;;5.05;1.33;;;;;;;12.00;72.69;99414.13;10393829;28;20044;-66
2024/04/03 02:25:40;;;;;;;4.38;1.00;;;;;;;11.98;73.14;99416.09;10367820;28;20094;-66
2024/04/03 02:30:40;;;;;;;4.05;1.20;;;;;;;11.82;73.55;99381.25;10375113;28;20620;-65
2024/04/03 02:35:41;;;;;;;4.32;1.17;;;;;;;12.03;73.18;99405.81;10371968;28;20698;-66
2024/04/03 02:40:41;;;;;;;4.47;1.05;;;;;;;11.98;73.35;99402.78;10394098;28;20487;-67
2024/04/03 02:45:42;;;;;;;4.38;1.25;;;;;;;11.97;73.88;99405.59;10398130;28;20044;-66
2024/04/03 02:50:44;;;;;;;2.50;1.10;;;;;;;11.96;74.62;99399.41;10395385;28;20056;-67
2024/04/03 02:55:44;;;;;;;3.38;1.17;;;;;;;11.89;75.23;99393.00;10371750;28;20139;-66
2024/04/03 03:00:44;;;;;;;4.05;1.02;;;;;;;11.88;75.40;99393.16;10405300;28;20128;-67
2024/04/03 03:05:48;;;;;;;6.45;1.75;;;;;;;11.80;76.17;99389.41;10411329;28;20053;-65
2024/04/03 03:10:48;;;;;;;4.95;1.00;;;;;;;11.92;76.28;99390.03;10387381;28;20160;-65
2024/04/03 03:15:56;;;;;;;4.60;0.93;;;;;;;11.55;76.13;99328.88;10410771;28;20056;-66
2024/04/03 03:20:57;;;;;;;3.63;1.17;;;;;;;11.88;76.32;99367.31;10408033;28;20621;-65
2024/04/03 03:25:57;;;;;;;3.88;1.05;;;;;;;11.98;76.73;99373.44;10396637;28;20057;-65
2024/04/03 03:30:58;;;;;;;2.50;0.85;;;;;;;11.88;77.28;99372.66;10406655;28;20057;-65
2024/04/03 03:35:58;;;;;;;1.65;0.77;;;;;;;11.70;77.09;99329.16;10361767;28;20192;-65
2024/04/03 03:41:03;;;;;;;6.85;1.17;;;;;;;11.99;77.52;99372.44;10399213;28;20053;-64
2024/04/03 03:46:03;;;;;;;3.22;1.50;;;;;;;11.98;78.64;99370.78;10394239;28;20151;-65
2024/04/03 03:56:29;;;;;;;4.88;1.23;;;;;;;11.97;76.83;99366.41;10369870;28;20621;-65
2024/04/03 04:01:29;;;;;;;5.28;1.10;;;;;;;11.79;75.74;99362.91;10374707;28;20266;-66
2024/04/03 04:06:30;;;;;;;6.43;1.60;;;;;;;11.76;77.04;99355.22;10410543;28;21318;-66
2024/04/03 04:11:30;;;;;;;4.35;0.98;;;;;;;11.84;78.49;99349.94;10374637;28;20049;-66
2024/04/03 04:16:31;;;;;;;5.28;1.38;;;;;;;11.90;78.57;99343.97;10376643;28;20092;-66
2024/04/03 04:21:31;;;;;;;2.50;0.98;;;;;;;11.97;77.48;99346.91;10373916;28;20388;-65
2024/04/03 04:26:32;;;;;;;3.42;1.45;;;;;;;11.94;77.47;99326.72;10364904;28;20057;-66
2024/04/03 04:31:32;;;;;;;2.58;1.05;;;;;;;11.99;78.69;99331.59;10359854;28;20897;-65
2024/04/03 04:36:33;;;;;;;5.30;1.40;;;;;;;11.96;76.82;99339.91;10410374;28;20052;-67
2024/04/03 04:41:33;;;;;;;4.50;1.52;;;;;;;11.92;78.08;99326.03;10399976;28;20617;-67
2024/04/03 04:46:33;;;;;;;5.07;1.20;;;;;;;11.91;77.53;99320.84;10397120;28;20488;-64
2024/04/03 04:51:34;;;;;;;3.92;1.17;;;;;;;11.95;78.68;99308.88;10402983;28;20045;-64
2024/04/03 04:56:35;;;;;;;3.53;1.13;;;;;;;11.96;78.37;99303.38;10403681;28;20052;-65
2024/04/03 05:01:38;;;;;;;5.72;1.75;;;;;;;11.96;79.57;99308.72;10420018;28;20062;-66
2024/04/03 05:06:38;;;;;;;3.80;1.40;;;;;;;11.87;79.04;99304.28;10408440;28;20156;-61
2024/04/03 05:11:39;;;;;;;4.32;1.63;;;;;;;11.76;79.13;99289.38;10398951;28;20949;-60
2024/04/03 05:16:39;;;;;;;6.40;1.90;;;;;;;11.84;79.73;99315.28;10403715;28;20051;-61
2024/04/03 05:21:40;;;;;;;2.97;1.33;;;;;;;11.84;80.20;99315.28;10404031;28;20812;-62
2024/04/03 05:26:40;;;;;;;2.60;1.52;;;;;;;11.82;81.24;99317.28;10405705;28;20134;-63
2024/04/03 05:31:43;;;;;;;3.58;1.60;;;;;;;11.86;81.81;99310.63;10402924;28;21801;-62
2024/04/03 05:36:44;;;;;;;2.75;1.50;;;;;;;11.88;82.38;99321.16;10397579;28;20255;-62
2024/04/03 05:41:45;;;;;;;4.40;2.00;;;;;;;11.93;82.38;99319.72;10393964;28;20637;-62
2024/04/03 05:46:45;;;;;;;3.13;1.77;;;;;;;11.98;82.17;99317.44;10374989;28;20050;-62
2024/04/03 05:51:46;;;;;;;4.60;1.85;;;;;;;12.07;82.26;99320.13;10367126;28;20048;-62
2024/04/03 05:56:46;;;;;;;4.68;1.85;;;;;;;12.12;82.27;99309.84;10366007;28;20099;-60
2024/04/03 06:01:47;;;;;;;7.03;2.65;;;;;;;12.09;81.83;99318.16;10386730;28;20620;-62
2024/04/03 06:06:48;;;;;;;4.70;2.10;;;;;;;11.99;81.71;99311.09;10410949;28;20041;-60
2024/04/03 06:11:49;;;;;;;5.43;1.70;;;;;;;12.01;80.32;99319.78;10428311;28;20132;-60
2024/04/03 06:16:49;;;;;;;6.25;2.03;;;;;;;12.05;80.18;99319.47;10415320;28;20040;-62
2024/04/03 06:21:49;;;;;;;6.18;2.20;;;;;;;12.14;80.88;99331.88;10410755;28;20594;-61
2024/04/03 06:26:50;;;;;;;6.45;1.90;;;;;;;12.20;80.62;99325.91;10404651;28;20777;-61
2024/04/03 06:31:52;;;;;;;6.70;2.53;;;;;;;12.29;80.65;99330.28;10399329;28;20041;-60
2024/04/03 06:36:53;;;;;;;17.08;9.30;;;;;;;12.14;81.21;99299.84;10406828;28;20051;-62
2024/04/03 06:41:53;;;;;;;11.23;6.10;;;;;;;12.39;78.60;99327.53;10403040;28;20053;-62
2024/04/03 06:47:00;;;;;;;5.80;2.65;;;;;;;12.42;77.72;99329.06;10343091;28;20046;-60
2024/04/03 06:52:01;;;;;;;7.28;3.67;;;;;;;12.45;76.21;99318.06;10396423;28;20102;-60
2024/04/03 06:57:02;;;;;;;6.07;2.30;;;;;;;12.35;70.92;99318.97;10395638;28;20053;-65
2024/04/03 07:02:03;;;;;;;27.13;13.13;;;;;;;12.37;71.93;99325.03;10402452;28;20044;-61
2024/04/03 07:07:05;;;;;;;6.03;2.53;;;;;;;12.35;70.65;99329.66;10407986;28;20369;-62
2024/04/03 07:12:05;;;;;;;3.05;1.58;;;;;;;12.12;69.71;99334.69;10389091;28;21068;-61
2024/04/03 07:17:06;;;;;;;3.03;1.13;;;;;;;11.97;69.81;99345.06;10408917;28;20059;-62
2024/04/03 07:22:07;;;;;;;2.47;1.40;;;;;;;11.95;71.15;99343.56;10425939;28;20060;-62
2024/04/03 07:27:07;;;;;;;4.30;1.60;;;;;;;12.01;72.25;99359.78;10404752;28;20057;-62
2024/04/03 07:32:08;;;;;;;4.63;1.52;;;;;;;12.02;72.13;99347.28;10410422;28;20132;-62
2024/04/03 07:37:08;;;;;;;3.17;1.00;;;;;;;11.61;72.90;99326.41;10410698;28;20064;-62
2024/04/03 07:42:09;;;;;;;4.18;1.10;;;;;;;11.91;75.00;99356.34;10401311;28;20054;-63
2024/04/03 07:47:09;;;;;;;2.45;1.08;;;;;;;12.04;75.35;99355.97;10402470;28;20061;-62
2024/04/03 07:52:10;;;;;;;3.63;0.80;;;;;;;12.08;75.06;99345.81;10407816;28;20063;-67
2024/04/03 07:57:10;;;;;;;3.25;1.00;;;;;;;12.31;75.70;99355.00;10408001;28;20049;-61
2024/04/03 08:02:10;;;;;;;2.85;1.10;;;;;;;12.23;74.83;99351.44;10406696;28;20633;-60
2024/04/03 08:07:11;;;;;;;5.45;4.30;;;;;;;12.14;76.26;99355.88;10411288;28;20124;-63
2024/04/03 08:12:11;;;;;;;1.77;0.63;;;;;;;12.05;76.62;99364.81;10393441;28;20148;-62
2024/04/03 08:17:12;;;;;;;5.30;1.50;;;;;;;12.18;76.84;99368.75;10421514;28;20052;-62
2024/04/03 08:22:12;;;;;;;2.67;0.82;;;;;;;12.18;77.11;99365.25;10404137;28;20046;-62
2024/04/03 08:27:13;;;;;;;1.65;1.00;;;;;;;12.25;76.99;99363.63;10409150;28;20679;-61
2024/04/03 08:32:15;;;;;;;3.50;1.33;;;;;;;12.21;77.28;99359.59;10388471;28;20071;-63
2024/04/03 08:37:16;;;;;;;2.65;0.80;;;;;;;12.21;75.66;99359.59;10387843;28;20145;-61
2024/04/03 08:42:17;;;;;;;1.98;0.80;;;;;;;12.15;77.04;99376.22;10401803;28;20056;-62
2024/04/03 08:47:20;;;;;;;2.75;0.85;;;;;;;12.08;74.87;99327.16;10371913;28;20176;-62
2024/04/03 08:52:28;;;;;;;2.83;0.60;;;;;;;12.09;75.99;99355.50;10384678;28;20726;-61
2024/04/03 08:57:29;;;;;;;2.20;1.10;;;;;;;12.17;76.38;99350.22;10381113;28;20143;-61
2024/04/03 09:02:29;;;;;;;2.83;0.70;;;;;;;12.22;76.00;99345.28;10399645;28;20139;-63
2024/04/03 09:07:30;;;;;;;4.38;1.00;;;;;;;12.30;74.42;99339.97;10383638;28;20071;-62
2024/04/03 09:12:30;;;;;;;1.95;0.63;;;;;;;12.27;74.68;99328.78;10401142;28;20526;-61
2024/04/03 09:17:31;;;;;;;2.85;0.68;;;;;;;12.16;75.50;99329.88;10410211;28;20136;-62
2024/04/03 09:22:31;;;;;;;2.63;0.50;;;;;;;12.28;75.16;99315.28;10378988;28;20128;-62
2024/04/03 09:27:32;;;;;;;1.25;0.57;;;;;;;12.48;74.52;99323.91;10417027;28;20053;-61
2024/04/03 09:32:33;;;;;;;1.65;0.40;;;;;;;12.62;73.73;99322.47;10405650;28;20041;-60
2024/04/03 09:37:35;;;;;;;4.00;0.52;;;;;;;12.67;74.26;99320.16;10421022;28;20135;-60
2024/04/03 09:42:36;;;;;;;2.20;0.75;;;;;;;12.55;73.35;99313.44;10406236;28;20139;-61
2024/04/03 09:47:37;;;;;;;4.32;1.08;;;;;;;12.47;74.45;99305.38;10404192;28;20754;-61
2024/04/03 09:52:38;;;;;;;3.05;0.80;;;;;;;12.60;74.06;99296.94;10393416;28;20047;-62
2024/04/03 09:57:39;;;;;;;5.03;0.55;;;;;;;12.92;73.54;99282.88;10409962;28;20312;-61
2024/04/03 10:02:48;;;;;;;2.75;0.70;;;;;;;13.26;71.46;99281.94;10402982;28;20135;-62
2024/04/03 10:08:12;;;;;;;4.82;0.80;;;;;;;13.53;69.64;99280.00;10397125;28;20104;-62
2024/04/03 10:13:22;;;;;;;2.10;0.60;;;;;;;13.57;69.20;99281.31;10377106;28;20155;-63
2024/04/03 10:18:25;;;;;;;2.17;0.60;;;;;;;13.29;66.63;99219.34;10397409;28;20148;-63
2024/04/03 10:23:26;;;;;;;2.53;0.73;;;;;;;13.79;65.56;99263.78;10401457;28;20519;-63
2024/04/03 10:28:26;;;;;;;3.05;0.70;;;;;;;13.80;64.68;99262.78;10380778;28;20048;-61
2024/04/03 10:33:28;;;;;;;1.02;0.60;;;;;;;13.46;64.64;99262.97;10394805;28;20061;-63
2024/04/03 10:38:31;;;;;;;1.55;0.32;;;;;;;13.32;64.82;99261.75;10407606;28;20136;-62
2024/04/03 10:43:32;;;;;;;2.95;0.85;;;;;;;13.24;65.71;99259.88;10406665;28;20803;-61
2024/04/03 10:48:32;;;;;;;4.00;0.70;;;;;;;13.08;65.55;99261.53;10381885;28;20080;-61
2024/04/03 10:53:34;;;;;;;1.45;0.85;;;;;;;12.83;66.11;99225.09;10392298;28;20045;-62
2024/04/03 10:58:39;;;;;;;3.38;1.25;;;;;;;12.84;66.50;99229.44;10383730;28;20140;-63
2024/04/03 11:03:41;;;;;;;2.13;0.60;;;;;;;13.03;66.16;99263.88;10398911;28;20144;-62
2024/04/03 11:08:42;;;;;;;1.38;0.68;;;;;;;13.01;67.26;99260.50;10408719;28;20499;-63
2024/04/03 11:13:46;;;;;;;3.20;0.93;;;;;;;12.99;67.98;99265.19;10387694;28;20049;-62
2024/04/03 11:18:47;;;;;;;2.80;0.95;;;;;;;12.95;69.73;99271.84;10407296;28;20128;-61
2024/04/03 11:23:47;;;;;;;2.97;0.95;;;;;;;12.87;74.00;99287.88;10404194;28;20052;-64
2024/04/03 11:28:48;;;;;;;3.25;0.85;;;;;;;12.73;78.51;99282.16;10405041;28;20053;-61
2024/04/03 11:33:48;;;;;;;2.78;1.10;;;;;;;12.94;79.45;99275.53;10410763;28;20051;-62
2024/04/03 11:38:49;;;;;;;2.72;0.77;;;;;;;12.98;80.24;99286.72;10414006;28;20418;-62
2024/04/03 11:43:49;;;;;;;2.20;0.98;;;;;;;13.00;80.40;99290.91;10411206;28;20128;-61
2024/04/03 11:48:51;;;;;;;2.97;1.20;;;;;;;13.17;80.47;99288.28;10413002;28;20462;-62
2024/04/03 11:53:51;;;;;;;2.25;0.88;;;;;;;13.25;80.33;99290.97;10400876;28;20121;-61
2024/04/03 11:58:52;;;;;;;3.20;1.30;;;;;;;13.51;80.62;99292.69;10399747;28;20041;-63
2024/04/03 12:03:53;;;;;;;2.33;0.93;;;;;;;13.33;78.99;99285.66;10413307;28;20044;-62
2024/04/03 12:08:54;;;;;;;2.63;0.90;;;;;;;13.38;78.20;99278.00;10411886;28;20131;-62
2024/04/03 12:13:54;;;;;;;3.00;1.02;;;;;;;13.22;77.61;99285.94;10411476;28;20052;-63
2024/04/03 12:19:13;;;;;;;1.85;0.52;;;;;;;13.09;78.80;99281.91;10397481;28;20045;-62
2024/04/03 12:24:14;;;;;;;2.13;0.40;;;;;;;12.87;77.25;99279.84;10403131;28;20127;-62
2024/04/03 12:29:16;;;;;;;3.53;1.13;;;;;;;12.85;78.96;99281.84;10402234;28;20048;-62
2024/04/03 12:34:17;;;;;;;1.23;0.50;;;;;;;12.87;78.42;99279.84;10406200;28;20135;-63
2024/04/03 12:39:17;;;;;;;0.90;0.40;;;;;;;12.75;78.83;99278.50;10405941;28;20306;-62
2024/04/03 12:44:18;;;;;;;1.00;0.38;;;;;;;12.78;78.02;99283.50;10396152;28;20037;-63
2024/04/03 12:49:22;;;;;;;1.77;0.70;;;;;;;12.91;77.31;99278.53;10399073;28;20056;-62
2024/04/03 12:54:22;;;;;;;2.73;0.73;;;;;;;12.70;78.32;99279.81;10400100;28;20182;-62
2024/04/03 12:59:23;;;;;;;3.92;0.52;;;;;;;12.90;79.07;99284.88;10377376;28;20732;-62
2024/04/03 13:04:23;;;;;;;1.85;0.40;;;;;;;12.95;78.41;99282.53;10403801;28;20052;-61
2024/04/03 13:09:24;;;;;;;2.20;0.57;;;;;;;12.91;79.71;99291.91;10395341;28;20051;-64
2024/04/03 13:14:24;;;;;;;2.83;1.00;;;;;;;12.57;82.31;99279.41;10396456;28;20444;-63
2024/04/03 13:19:25;;;;;;;1.67;0.70;;;;;;;12.52;82.87;99287.03;10361049;28;20069;-61
2024/04/03 13:24:26;;;;;;;2.65;0.60;;;;;;;12.17;84.78;99254.19;10391327;28;20132;-62
2024/04/03 13:29:26;;;;;;;1.25;0.70;;;;;;;12.34;87.02;99298.66;10410501;28;20635;-62
2024/04/03 13:34:27;;;;;;;5.20;0.73;;;;;;;12.41;89.84;99306.84;10404966;28;20474;-62
2024/04/03 13:39:27;;;;;;;2.03;1.00;;;;;;;12.58;90.55;99294.44;10395818;28;20046;-63
2024/04/03 13:44:28;;;;;;;1.30;0.60;;;;;;;12.57;90.22;99295.44;10381582;28;20041;-62
2024/04/03 13:49:28;;;;;;;1.08;0.60;;;;;;;12.30;91.44;99305.28;10400276;28;20051;-62
2024/04/03 13:54:29;;;;;;;2.42;0.68;;;;;;;12.29;92.62;99308.13;10407262;28;20227;-63
2024/04/03 13:59:30;;;;;;;1.98;1.15;;;;;;;12.31;94.70;99311.44;10394075;28;20048;-63
2024/04/03 14:04:30;;;;;;;2.50;0.77;;;;;;;12.33;94.31;99306.81;10399600;28;20044;-64
2024/04/03 14:09:31;;;;;;;3.58;0.93;;;;;;;12.35;95.84;99302.97;10401662;28;20047;-63
2024/04/03 14:14:32;;;;;;;2.63;1.08;;;;;;;12.27;97.35;99310.94;10407148;28;20609;-61
2024/04/03 14:19:32;;;;;;;1.52;1.00;;;;;;;12.38;97.55;99309.84;10370798;28;20507;-61
2024/04/03 14:24:33;;;;;;;2.20;1.08;;;;;;;12.29;99.26;99303.59;10381359;28;20164;-63
2024/04/03 14:29:33;;;;;;;0.98;0.60;;;;;;;12.12;100.00;99280.50;10406465;28;20048;-64
2024/04/03 14:34:34;;;;;;;2.17;1.00;;;;;;;12.49;100.00;99304.22;10411139;28;20678;-63
2024/04/03 14:39:35;;;;;;;2.95;1.23;;;;;;;12.44;100.00;99305.69;10422842;28;20040;-63
2024/04/03 14:44:35;;;;;;;2.63;1.10;;;;;;;12.30;100.00;99302.63;10401639;28;20088;-63
2024/04/03 14:49:35;;;;;;;2.17;0.90;;;;;;;12.23;100.00;99277.56;10410754;28;20427;-61
2024/04/03 14:54:36;;;;;;;2.60;0.88;;;;;;;12.12;100.00;99259.16;10410190;28;20067;-61
2024/04/03 14:59:36;;;;;;;1.30;0.88;;;;;;;12.43;100.00;99298.69;10395069;28;20046;-62
2024/04/03 15:04:37;;;;;;;1.65;0.95;;;;;;;12.43;100.00;99304.03;10411001;28;20126;-61
2024/04/03 15:09:37;;;;;;;1.65;1.02;;;;;;;12.43;100.00;99312.88;10403002;28;20159;-60
2024/04/03 15:14:38;;;;;;;1.50;0.75;;;;;;;12.36;100.00;99304.66;10406730;28;20056;-61
2024/04/03 15:19:39;;;;;;;1.98;0.90;;;;;;;12.37;100.00;99297.50;10365166;28;20180;-61
2024/04/03 15:24:39;;;;;;;1.85;0.90;;;;;;;12.36;100.00;99298.50;10366844;28;20057;-61
2024/04/03 15:29:40;;;;;;;1.58;0.80;;;;;;;12.32;100.00;99303.28;10376666;28;20059;-61
2024/04/03 15:34:42;;;;;;;1.55;1.00;;;;;;;12.36;100.00;99304.66;10401587;28;20057;-61
2024/04/03 15:39:42;;;;;;;1.25;0.65;;;;;;;12.37;100.00;99306.34;10387520;28;20153;-61
2024/04/03 15:44:43;;;;;;;0.88;0.63;;;;;;;12.33;100.00;99315.66;10402229;28;20056;-60
2024/04/03 15:49:43;;;;;;;2.35;1.20;;;;;;;12.01;100.00;99258.44;10386755;28;20049;-60
2024/04/03 15:54:44;;;;;;;1.30;0.70;;;;;;;12.33;100.00;99315.66;10382908;28;20056;-60
2024/04/03 15:59:44;;;;;;;2.13;0.70;;;;;;;12.32;100.00;99319.28;10404777;28;20049;-60
2024/04/03 16:04:45;;;;;;;1.77;0.80;;;;;;;12.19;100.00;99306.41;10409091;28;20049;-60
2024/04/03 16:09:45;;;;;;;2.92;1.30;;;;;;;12.18;100.00;99309.22;10404167;28;20040;-61
2024/04/03 16:14:46;;;;;;;3.28;1.30;;;;;;;12.30;100.00;99313.28;10403239;28;20067;-61
2024/04/03 16:19:48;;;;;;;3.15;1.20;;;;;;;12.23;100.00;99306.91;10412022;28;20060;-62
2024/04/03 16:24:48;;;;;;;2.67;1.00;;;;;;;12.02;100.00;99286.78;10419098;28;20156;-62
2024/04/03 16:29:49;;;;;;;1.25;1.08;;;;;;;12.30;100.00;99323.97;10362851;28;20049;-62
2024/04/03 16:34:49;;;;;;;2.72;1.27;;;;;;;12.22;100.00;99317.75;10370406;28;20059;-65
2024/04/03 16:39:50;;;;;;;1.85;1.10;;;;;;;12.25;100.00;99312.94;10405587;28;20052;-63
2024/04/03 16:44:50;;;;;;;2.03;1.17;;;;;;;12.33;100.00;99314.81;10405650;28;20052;-63
2024/04/03 16:49:50;;;;;;;1.95;1.17;;;;;;;12.23;100.00;99314.91;10395099;28;20063;-61
2024/04/03 16:54:54;;;;;;;2.67;0.95;;;;;;;12.33;100.00;99315.66;10405365;28;20093;-61
2024/04/03 16:59:54;;;;;;;1.73;1.00;;;;;;;12.41;100.00;99319.38;10400617;28;20123;-62
2024/04/03 17:04:55;;;;;;;1.33;0.60;;;;;;;12.42;100.00;99313.03;10369595;28;20049;-67
2024/04/03 17:09:55;;;;;;;0.95;0.55;;;;;;;12.54;100.00;99304.59;10357797;28;20076;-60
2024/04/03 17:14:56;;;;;;;1.98;0.30;;;;;;;12.28;100.00;99285.94;10346782;28;20049;-61
2024/04/03 17:19:56;;;;;;;7.72;2.05;;;;;;;12.45;100.00;99323.41;10395944;28;20061;-62
2024/04/03 17:24:57;;;;;;;3.05;1.17;;;;;;;12.41;100.00;99338.03;10400616;28;20056;-65
2024/04/03 17:29:57;;;;;;;1.50;1.02;;;;;;;12.23;100.00;99311.41;10402888;28;20048;-65
2024/04/03 17:34:59;;;;;;;1.02;0.60;;;;;;;12.41;100.00;99341.53;10419511;28;20049;-67
2024/04/03 17:39:59;;;;;;;1.60;0.90;;;;;;;12.42;100.00;99350.41;10401106;28;20180;-61
2024/04/03 17:45:07;;;;;;;1.70;0.80;;;;;;;12.36;100.00;99362.53;10390514;28;20059;-62
2024/04/03 17:50:11;;;;;;;3.13;0.60;;;;;;;12.24;100.00;99353.94;10384911;28;20166;-61
2024/04/03 17:55:12;;;;;;;2.05;0.80;;;;;;;12.28;100.00;99354.47;10414801;28;20684;-60
2024/04/03 18:00:13;;;;;;;2.30;0.80;;;;;;;12.34;100.00;99359.16;10402862;28;20047;-60
2024/04/03 18:05:15;;;;;;;1.83;1.17;;;;;;;12.28;100.00;99351.78;10416318;28;20191;-61
2024/04/03 18:10:16;;;;;;;2.08;1.27;;;;;;;12.22;100.00;99361.28;10415450;28;20123;-62
2024/04/03 18:15:17;;;;;;;1.30;1.00;;;;;;;12.28;100.00;99387.34;10417356;28;20056;-60
2024/04/03 18:20:18;;;;;;;1.83;1.30;;;;;;;12.30;100.00;99381.84;10416461;28;20127;-62
2024/04/03 18:25:18;;;;;;;1.45;0.75;;;;;;;12.28;100.00;99387.34;10414719;28;20686;-60
2024/04/03 18:30:19;;;;;;;1.73;0.77;;;;;;;12.18;100.00;99383.94;10415447;28;20049;-61
2024/04/03 18:35:21;;;;;;;1.75;1.13;;;;;;;12.14;100.00;99395.88;10394158;28;20123;-59
2024/04/03 18:40:22;;;;;;;2.30;1.02;;;;;;;12.14;100.00;99401.22;10418790;28;20136;-59
2024/04/03 18:45:23;;;;;;;1.20;0.70;;;;;;;12.12;100.00;99403.22;10403171;28;20143;-66
2024/04/03 18:50:23;;;;;;;1.73;1.27;;;;;;;12.17;100.00;99407.09;10410669;28;20053;-66
2024/04/03 18:55:23;;;;;;;1.73;1.35;;;;;;;12.18;100.00;99406.09;10404335;28;20044;-66
2024/04/03 19:00:24;;;;;;;1.77;1.10;;;;;;;12.20;100.00;99417.47;10399678;28;20396;-66
2024/04/03 19:05:25;;;;;;;1.73;0.85;;;;;;;12.25;100.00;99419.66;10406335;28;20037;-66
2024/04/03 19:10:25;;;;;;;1.63;1.00;;;;;;;12.19;100.00;99426.47;10412441;28;20041;-66
2024/04/03 19:15:26;;;;;;;1.17;0.60;;;;;;;12.23;100.00;99426.16;10410501;28;20053;-66
2024/04/03 19:20:26;;;;;;;1.92;1.02;;;;;;;12.24;100.00;99420.66;10403383;28;20053;-65
2024/04/03 19:25:27;;;;;;;1.40;0.82;;;;;;;12.13;100.00;99403.06;10406272;28;20465;-66
2024/04/03 19:30:27;;;;;;;1.98;1.17;;;;;;;12.29;100.00;99433.53;10411118;28;20090;-65
2024/04/03 19:35:28;;;;;;;3.03;0.80;;;;;;;12.33;100.00;99430.41;10407225;28;20057;-66
2024/04/03 19:40:28;;;;;;;2.13;1.17;;;;;;;12.38;100.00;99428.13;10390351;28;20557;-65
2024/04/03 19:45:29;;;;;;;2.75;1.10;;;;;;;12.43;100.00;99424.13;10367528;28;20048;-65
2024/04/03 19:50:30;;;;;;;2.53;1.50;;;;;;;12.47;100.00;99412.97;10406338;28;20060;-68
2024/04/03 19:55:31;;;;;;;4.28;1.15;;;;;;;12.46;100.00;99416.66;10406527;28;20109;-66
2024/04/03 20:00:33;;;;;;;4.15;1.30;;;;;;;12.24;100.00;99385.97;10398130;28;20128;-65
2024/04/03 20:05:34;;;;;;;4.95;1.50;;;;;;;12.42;100.00;99425.97;10409805;28;20128;-67
2024/04/03 20:10:46;;;;;;;2.45;1.20;;;;;;;12.47;100.00;99417.47;10378573;28;20068;-67
2024/04/03 20:15:48;;;;;;;2.40;1.42;;;;;;;12.41;100.00;99418.13;10408710;28;20601;-67
2024/04/03 20:20:48;;;;;;;2.65;1.45;;;;;;;12.36;100.00;99414.06;10397622;28;20382;-64
2024/04/03 20:25:49;;;;;;;2.10;1.10;;;;;;;12.22;100.00;99387.97;10408631;28;20063;-63
2024/04/03 20:30:50;;;;;;;4.70;1.98;;;;;;;12.44;100.00;99417.78;10404331;28;20146;-61
2024/04/03 20:35:51;;;;;;;2.50;1.45;;;;;;;12.43;100.00;99421.44;10395421;28;20557;-64
2024/04/03 20:40:52;;;;;;;3.10;1.85;;;;;;;12.40;100.00;99413.75;10376842;28;20049;-63
2024/04/03 20:45:52;;;;;;;3.13;1.20;;;;;;;12.37;100.00;99410.41;10404163;28;20108;-63
2024/04/03 20:50:53;;;;;;;3.75;1.25;;;;;;;12.41;100.00;99410.09;10404320;28;20885;-64
2024/04/03 20:55:53;;;;;;;2.65;1.50;;;;;;;12.40;100.00;99416.44;10400962;28;20188;-62
2024/04/03 21:00:54;;;;;;;2.20;1.23;;;;;;;12.32;100.00;99396.69;10388358;28;20711;-63
2024/04/03 21:05:54;;;;;;;3.20;1.05;;;;;;;12.28;100.00;99416.69;10400126;28;20055;-65
2024/04/03 21:10:55;;;;;;;2.65;1.10;;;;;;;12.25;100.00;99422.34;10403006;28;20052;-63
2024/04/03 21:15:55;;;;;;;3.72;1.60;;;;;;;12.05;100.00;99383.47;10404952;28;20048;-63
2024/04/03 21:20:56;;;;;;;2.35;1.45;;;;;;;12.29;100.00;99425.53;10404204;28;20116;-64
2024/04/03 21:25:56;;;;;;;2.70;1.38;;;;;;;12.34;100.00;99423.22;10429081;28;20049;-64
2024/04/03 21:31:01;;;;;;;2.95;1.17;;;;;;;12.07;100.00;99400.16;10391314;28;20050;-62
2024/04/03 21:36:03;;;;;;;3.75;1.17;;;;;;;12.41;100.00;99455.47;10394559;28;20119;-64
2024/04/03 21:41:04;;;;;;;2.25;1.33;;;;;;;12.42;100.00;99474.00;10405905;28;20145;-62
2024/04/03 21:46:04;;;;;;;4.38;1.67;;;;;;;12.46;100.00;99479.84;10399873;28;20450;-64
2024/04/03 21:51:05;;;;;;;2.38;1.35;;;;;;;12.48;100.00;99484.06;10404121;28;20045;-64
2024/04/03 21:56:07;;;;;;;2.53;1.52;;;;;;;12.46;100.00;99498.53;10388928;28;20045;-62
2024/04/03 22:01:07;;;;;;;3.65;1.70;;;;;;;12.44;100.00;99503.22;10383006;28;20120;-65
2024/04/03 22:06:08;;;;;;;4.65;1.65;;;;;;;12.35;100.00;99500.44;10406421;28;20434;-62
2024/04/03 22:11:08;;;;;;;4.22;1.70;;;;;;;12.33;100.00;99506.97;10403137;28;20041;-64
2024/04/03 22:16:08;;;;;;;2.78;1.60;;;;;;;12.29;100.00;99517.06;10401265;28;20136;-64
2024/04/03 22:21:09;;;;;;;4.57;2.20;;;;;;;12.30;100.00;99526.78;10398913;28;20373;-63
2024/04/03 22:26:09;;;;;;;3.55;1.85;;;;;;;12.36;100.00;99533.34;10397292;28;20067;-63
2024/04/03 22:31:10;;;;;;;4.43;1.70;;;;;;;12.33;100.00;99550.47;10399934;28;20053;-62
2024/04/03 22:36:11;;;;;;;3.47;1.23;;;;;;;12.33;100.00;99555.81;10406682;28;20054;-61
2024/04/03 22:41:12;;;;;;;3.65;1.40;;;;;;;12.38;100.00;99564.22;10409741;28;20971;-63
2024/04/03 22:46:12;;;;;;;3.22;1.40;;;;;;;12.34;100.00;99560.19;10411168;28;20076;-62
2024/04/03 22:51:13;;;;;;;3.22;1.00;;;;;;;12.43;100.00;99593.13;10411977;28;20044;-64
2024/04/03 22:56:13;;;;;;;4.38;1.38;;;;;;;12.38;100.00;99584.72;10408806;28;20136;-65
2024/04/03 23:01:14;;;;;;;2.17;1.00;;;;;;;12.44;100.00;99607.31;10410553;28;20048;-61
2024/04/03 23:06:14;;;;;;;3.95;1.30;;;;;;;12.39;100.00;99607.75;10411623;28;20044;-62
2024/04/03 23:11:15;;;;;;;3.35;1.30;;;;;;;12.42;100.00;99610.13;10411775;28;20075;-62
2024/04/03 23:16:15;;;;;;;3.30;1.30;;;;;;;12.42;100.00;99617.31;10413821;28;20041;-64